createdAt,value
2022-10-19T00:00:29.250Z,0.00
2022-10-19T00:01:29.237Z,0.00
2022-10-19T00:02:29.278Z,0.00
2022-10-19T00:03:29.218Z,0.00
2022-10-19T00:04:29.218Z,0.00
2022-10-19T00:05:29.200Z,0.00
2022-10-19T00:06:29.196Z,0.00
2022-10-19T00:07:29.237Z,0.00
2022-10-19T00:08:29.165Z,0.00
2022-10-19T00:09:29.170Z,0.00
2022-10-19T00:10:29.154Z,0.00
2022-10-19T00:11:29.141Z,0.00
2022-10-19T00:12:29.131Z,0.00
2022-10-19T00:13:29.130Z,0.00
2022-10-19T00:14:29.121Z,0.00
2022-10-19T00:15:29.103Z,0.00
2022-10-19T00:16:29.095Z,0.00
2022-10-19T00:17:29.092Z,0.00
2022-10-19T00:18:29.069Z,0.00
2022-10-19T00:19:29.084Z,0.00
2022-10-19T00:20:29.058Z,0.00
2022-10-19T00:21:29.049Z,0.00
2022-10-19T00:22:29.038Z,0.00
2022-10-19T00:23:29.031Z,0.00
2022-10-19T00:24:29.035Z,0.00
2022-10-19T00:25:29.012Z,0.00
2022-10-19T00:26:28.999Z,0.00
2022-10-19T00:27:28.990Z,0.00
2022-10-19T00:28:29.054Z,0.00
2022-10-19T00:29:28.990Z,0.00
2022-10-19T00:30:28.965Z,0.00
2022-10-19T00:31:28.954Z,0.00
2022-10-19T00:32:28.945Z,0.00
2022-10-19T00:33:28.935Z,0.00
2022-10-19T00:34:28.938Z,0.00
2022-10-19T00:35:28.916Z,0.00
2022-10-19T00:36:28.905Z,0.00
2022-10-19T00:37:28.895Z,0.00
2022-10-19T00:38:28.883Z,0.00
2022-10-19T00:39:28.888Z,0.00
2022-10-19T00:40:28.866Z,0.00
2022-10-19T00:41:28.871Z,0.00
2022-10-19T00:42:28.848Z,0.00
2022-10-19T00:43:28.827Z,0.00
2022-10-19T00:44:29.839Z,0.00
2022-10-19T00:45:28.817Z,0.00
2022-10-19T00:46:28.811Z,0.00
2022-10-19T00:47:28.804Z,0.00
2022-10-19T00:48:28.792Z,0.00
2022-10-19T00:49:28.791Z,0.00
2022-10-19T00:50:28.777Z,0.00
2022-10-19T00:51:28.758Z,0.00
2022-10-19T00:52:28.755Z,0.00
2022-10-19T00:53:28.745Z,0.00
2022-10-19T00:54:28.748Z,0.00
2022-10-19T00:55:28.728Z,0.00
2022-10-19T00:56:28.718Z,0.00
2022-10-19T00:57:28.747Z,0.00
2022-10-19T00:58:28.697Z,0.00
2022-10-19T00:59:28.697Z,0.00
2022-10-19T01:00:28.694Z,0.00
2022-10-19T01:01:28.719Z,0.00
2022-10-19T01:02:28.666Z,0.00
2022-10-19T01:03:28.662Z,0.00
2022-10-19T01:04:28.655Z,0.00
2022-10-19T01:05:28.636Z,0.00
2022-10-19T01:06:28.635Z,0.00
2022-10-19T01:07:28.620Z,0.00
2022-10-19T01:08:28.622Z,0.00
2022-10-19T01:10:00.518Z,0.00
2022-10-19T01:10:28.589Z,0.00
2022-10-19T01:11:28.585Z,0.00
2022-10-19T01:12:28.577Z,0.00
2022-10-19T01:13:28.564Z,0.00
2022-10-19T01:14:28.564Z,0.00
2022-10-19T01:15:28.546Z,0.00
2022-10-19T01:16:28.530Z,0.00
2022-10-19T01:17:28.524Z,0.00
2022-10-19T01:18:28.510Z,0.00
2022-10-19T01:19:28.517Z,0.00
2022-10-19T01:20:28.499Z,0.00
2022-10-19T01:21:28.484Z,0.00
2022-10-19T01:22:28.473Z,0.00
2022-10-19T01:23:28.466Z,0.00
2022-10-19T01:24:28.474Z,0.00
2022-10-19T01:25:28.446Z,0.00
2022-10-19T01:26:28.447Z,0.00
2022-10-19T01:27:28.431Z,0.00
2022-10-19T01:28:28.434Z,0.00
2022-10-19T01:29:28.422Z,0.00
2022-10-19T01:30:28.400Z,0.00
2022-10-19T01:31:28.391Z,0.00
2022-10-19T01:32:28.387Z,0.00
2022-10-19T01:33:28.380Z,0.00
2022-10-19T01:34:28.379Z,0.00
2022-10-19T01:35:28.358Z,0.00
2022-10-19T01:36:28.353Z,0.00
2022-10-19T01:37:28.345Z,0.00
2022-10-19T01:38:28.333Z,0.00
2022-10-19T01:39:28.338Z,0.00
2022-10-19T01:40:28.314Z,0.00
2022-10-19T01:41:28.310Z,0.00
2022-10-19T01:42:28.297Z,0.00
2022-10-19T01:43:28.290Z,0.00
2022-10-19T01:44:28.288Z,0.00
2022-10-19T01:45:28.272Z,0.00
2022-10-19T01:46:28.261Z,0.00
2022-10-19T01:47:28.257Z,0.00
2022-10-19T01:48:28.243Z,0.00
2022-10-19T01:49:28.245Z,0.00
2022-10-19T01:50:28.225Z,0.00
2022-10-19T01:51:28.223Z,0.00
2022-10-19T01:52:28.212Z,0.00
2022-10-19T01:53:28.192Z,0.00
2022-10-19T01:54:28.196Z,0.00
2022-10-19T01:55:28.180Z,0.00
2022-10-19T01:56:28.167Z,0.00
2022-10-19T01:57:28.155Z,0.00
2022-10-19T01:58:28.143Z,0.00
2022-10-19T01:59:28.147Z,0.00
2022-10-19T02:00:28.132Z,0.00
2022-10-19T02:01:28.124Z,0.00
2022-10-19T02:02:28.112Z,0.00
2022-10-19T02:03:28.096Z,0.00
2022-10-19T02:04:28.100Z,0.00
2022-10-19T02:05:28.080Z,0.00
2022-10-19T02:06:28.070Z,0.00
2022-10-19T02:07:28.059Z,0.00
2022-10-19T02:08:28.061Z,0.00
2022-10-19T02:09:28.049Z,0.00
2022-10-19T02:10:29.033Z,0.00
2022-10-19T02:11:28.033Z,0.00
2022-10-19T02:12:28.016Z,0.00
2022-10-19T02:13:28.010Z,0.00
2022-10-19T02:14:28.009Z,0.00
2022-10-19T02:15:27.988Z,0.00
2022-10-19T02:16:27.978Z,0.00
2022-10-19T02:17:27.972Z,0.00
2022-10-19T02:18:27.961Z,0.00
2022-10-19T02:19:27.963Z,0.00
2022-10-19T02:20:27.942Z,0.00
2022-10-19T02:21:27.933Z,0.00
2022-10-19T02:22:27.922Z,0.00
2022-10-19T02:23:27.915Z,0.00
2022-10-19T02:24:27.910Z,0.00
2022-10-19T02:25:27.897Z,0.00
2022-10-19T02:26:27.887Z,0.00
2022-10-19T02:27:27.873Z,0.00
2022-10-19T02:28:27.866Z,0.00
2022-10-19T02:29:27.867Z,0.00
2022-10-19T02:30:27.847Z,0.00
2022-10-19T02:31:27.841Z,0.00
2022-10-19T02:32:27.829Z,0.00
2022-10-19T02:33:27.833Z,0.00
2022-10-19T02:34:27.847Z,0.00
2022-10-19T02:35:27.802Z,0.00
2022-10-19T02:36:27.805Z,0.00
2022-10-19T02:37:27.874Z,0.00
2022-10-19T02:38:27.784Z,0.00
2022-10-19T02:39:27.781Z,0.00
2022-10-19T02:40:27.756Z,0.00
2022-10-19T02:41:27.749Z,0.00
2022-10-19T02:42:27.737Z,0.00
2022-10-19T02:43:27.727Z,0.00
2022-10-19T02:44:27.737Z,0.00
2022-10-19T02:45:27.711Z,0.00
2022-10-19T02:46:27.745Z,0.00
2022-10-19T02:47:27.688Z,0.00
2022-10-19T02:48:27.682Z,0.00
2022-10-19T02:49:27.683Z,0.00
2022-10-19T02:50:27.662Z,0.00
2022-10-19T02:51:27.651Z,0.00
2022-10-19T02:52:27.646Z,0.00
2022-10-19T02:53:27.632Z,0.00
2022-10-19T02:54:27.640Z,0.00
2022-10-19T02:55:27.651Z,0.00
2022-10-19T02:56:27.608Z,0.00
2022-10-19T02:57:27.593Z,0.00
2022-10-19T02:58:27.592Z,0.00
2022-10-19T02:59:27.587Z,0.00
2022-10-19T03:00:27.561Z,0.00
2022-10-19T03:01:27.559Z,0.00
2022-10-19T03:02:27.549Z,0.00
2022-10-19T03:03:27.545Z,0.00
2022-10-19T03:04:27.547Z,0.00
2022-10-19T03:05:27.523Z,0.00
2022-10-19T03:06:27.519Z,0.00
2022-10-19T03:07:27.512Z,0.00
2022-10-19T03:08:27.498Z,0.00
2022-10-19T03:09:27.501Z,0.00
2022-10-19T03:10:27.484Z,0.00
2022-10-19T03:11:27.480Z,0.00
2022-10-19T03:12:27.468Z,0.00
2022-10-19T03:13:27.477Z,0.00
2022-10-19T03:14:27.456Z,0.00
2022-10-19T03:15:27.433Z,0.00
2022-10-19T03:16:27.425Z,0.00
2022-10-19T03:17:27.417Z,0.00
2022-10-19T03:18:27.409Z,0.00
2022-10-19T03:19:27.404Z,0.00
2022-10-19T03:20:27.388Z,0.00
2022-10-19T03:21:27.379Z,0.00
2022-10-19T03:22:27.369Z,0.00
2022-10-19T03:23:27.356Z,0.00
2022-10-19T03:24:27.362Z,0.00
2022-10-19T03:25:27.340Z,0.00
2022-10-19T03:26:27.330Z,0.00
2022-10-19T03:27:27.322Z,0.00
2022-10-19T03:28:27.393Z,0.00
2022-10-19T03:29:27.319Z,0.00
2022-10-19T03:30:27.292Z,0.00
2022-10-19T03:31:27.290Z,0.00
2022-10-19T03:32:27.271Z,0.00
2022-10-19T03:33:27.273Z,0.00
2022-10-19T03:34:27.271Z,0.00
2022-10-19T03:35:27.250Z,0.00
2022-10-19T03:36:27.240Z,0.00
2022-10-19T03:37:27.227Z,0.00
2022-10-19T03:38:27.225Z,0.00
2022-10-19T03:39:27.226Z,0.00
2022-10-19T03:40:27.204Z,0.00
2022-10-19T03:41:27.192Z,0.00
2022-10-19T03:42:27.186Z,0.00
2022-10-19T03:43:27.176Z,0.00
2022-10-19T03:44:27.175Z,0.00
2022-10-19T03:45:27.153Z,0.00
2022-10-19T03:46:27.150Z,0.00
2022-10-19T03:47:27.141Z,0.00
2022-10-19T03:48:27.126Z,0.00
2022-10-19T03:49:27.139Z,0.00
2022-10-19T03:50:27.105Z,0.00
2022-10-19T03:51:28.103Z,0.00
2022-10-19T03:52:27.095Z,0.00
2022-10-19T03:53:27.082Z,0.00
2022-10-19T03:54:27.586Z,0.00
2022-10-19T03:55:27.066Z,0.00
2022-10-19T03:56:27.054Z,0.00
2022-10-19T03:57:27.049Z,0.00
2022-10-19T03:58:27.037Z,0.00
2022-10-19T03:59:27.046Z,0.00
2022-10-19T04:00:27.019Z,0.00
2022-10-19T04:01:27.098Z,0.00
2022-10-19T04:02:27.009Z,0.00
2022-10-19T04:03:27.022Z,0.00
2022-10-19T04:04:27.000Z,0.00
2022-10-19T04:05:26.978Z,0.00
2022-10-19T04:06:26.970Z,0.00
2022-10-19T04:07:26.963Z,0.00
2022-10-19T04:08:26.953Z,0.00
2022-10-19T04:09:26.950Z,0.00
2022-10-19T04:10:26.935Z,0.00
2022-10-19T04:11:26.958Z,0.00
2022-10-19T04:12:26.915Z,0.00
2022-10-19T04:13:26.905Z,0.00
2022-10-19T04:14:32.595Z,0.00
2022-10-19T04:15:27.888Z,0.00
2022-10-19T04:16:26.880Z,0.00
2022-10-19T04:17:26.871Z,0.00
2022-10-19T04:18:26.858Z,0.00
2022-10-19T04:19:26.867Z,0.00
2022-10-19T04:20:26.845Z,0.00
2022-10-19T04:21:26.833Z,0.00
2022-10-19T04:22:26.822Z,0.00
2022-10-19T04:23:26.815Z,0.00
2022-10-19T04:24:26.818Z,0.00
2022-10-19T04:25:26.795Z,0.00
2022-10-19T04:26:26.784Z,0.00
2022-10-19T04:27:26.789Z,0.00
2022-10-19T04:28:26.789Z,0.00
2022-10-19T04:29:29.979Z,0.00
2022-10-19T04:30:26.745Z,0.00
2022-10-19T04:31:26.745Z,0.00
2022-10-19T04:32:26.728Z,0.00
2022-10-19T04:33:26.717Z,0.00
2022-10-19T04:34:26.720Z,0.00
2022-10-19T04:35:26.699Z,0.00
2022-10-19T04:36:26.690Z,0.00
2022-10-19T04:37:26.680Z,0.00
2022-10-19T04:38:26.670Z,0.00
2022-10-19T04:39:26.672Z,0.00
2022-10-19T04:40:26.651Z,0.00
2022-10-19T04:41:26.637Z,0.00
2022-10-19T04:42:26.636Z,0.00
2022-10-19T04:43:26.626Z,0.00
2022-10-19T04:44:26.656Z,0.00
2022-10-19T04:45:26.609Z,0.00
2022-10-19T04:46:26.596Z,0.00
2022-10-19T04:47:26.584Z,0.00
2022-10-19T04:48:26.574Z,0.00
2022-10-19T04:49:26.582Z,0.00
2022-10-19T04:50:26.559Z,0.00
2022-10-19T04:51:26.552Z,0.00
2022-10-19T04:52:26.538Z,0.00
2022-10-19T04:53:26.552Z,0.00
2022-10-19T04:54:27.536Z,0.00
2022-10-19T04:55:26.510Z,0.00
2022-10-19T04:56:26.508Z,0.00
2022-10-19T04:57:26.520Z,0.00
2022-10-19T04:58:26.486Z,0.00
2022-10-19T04:59:26.492Z,0.00
2022-10-19T05:00:26.472Z,0.00
2022-10-19T05:01:26.460Z,0.00
2022-10-19T05:02:26.458Z,0.00
2022-10-19T05:03:26.442Z,0.00
2022-10-19T05:04:26.450Z,0.00
2022-10-19T05:05:26.419Z,0.00
2022-10-19T05:06:26.415Z,0.00
2022-10-19T05:07:26.408Z,0.00
2022-10-19T05:08:26.396Z,0.00
2022-10-19T05:09:26.397Z,0.00
2022-10-19T05:10:26.374Z,0.00
2022-10-19T05:11:26.365Z,0.00
2022-10-19T05:12:26.370Z,0.00
2022-10-19T05:13:26.347Z,0.00
2022-10-19T05:15:26.335Z,0.00
2022-10-19T05:16:26.319Z,0.00
2022-10-19T05:17:26.305Z,0.00
2022-10-19T05:18:26.305Z,0.00
2022-10-19T05:19:26.305Z,0.00
2022-10-19T05:20:26.287Z,4.00
2022-10-19T05:21:26.269Z,0.00
2022-10-19T05:22:26.264Z,0.00
2022-10-19T05:23:26.329Z,4.00
2022-10-19T05:24:26.271Z,0.00
2022-10-19T05:25:26.240Z,4.00
2022-10-19T05:26:26.228Z,0.00
2022-10-19T05:27:26.221Z,4.00
2022-10-19T05:28:26.256Z,4.00
2022-10-19T05:29:26.225Z,4.00
2022-10-19T05:30:26.198Z,4.00
2022-10-19T05:31:26.187Z,4.00
2022-10-19T05:32:26.177Z,8.00
2022-10-19T05:33:26.170Z,12.00
2022-10-19T05:34:26.158Z,12.00
2022-10-19T05:35:26.166Z,12.00
2022-10-19T05:36:26.193Z,16.00
2022-10-19T05:37:26.130Z,16.00
2022-10-19T05:38:26.123Z,20.00
2022-10-19T05:39:26.112Z,24.00
2022-10-19T05:40:26.118Z,28.00
2022-10-19T05:41:26.100Z,32.00
2022-10-19T05:42:26.083Z,40.00
2022-10-19T05:43:26.074Z,44.00
2022-10-19T05:44:26.143Z,52.00
2022-10-19T05:45:26.071Z,56.00
2022-10-19T05:46:26.050Z,68.00
2022-10-19T05:47:28.692Z,72.00
2022-10-19T05:48:26.035Z,80.00
2022-10-19T05:49:26.039Z,88.00
2022-10-19T05:50:26.016Z,96.00
2022-10-19T05:51:26.006Z,104.00
2022-10-19T05:52:25.998Z,116.00
2022-10-19T05:53:26.061Z,124.00
2022-10-19T05:54:27.780Z,132.00
2022-10-19T05:55:25.970Z,140.00
2022-10-19T05:56:25.967Z,148.00
2022-10-19T05:57:25.954Z,156.00
2022-10-19T05:58:25.945Z,168.00
2022-10-19T05:59:25.936Z,180.00
2022-10-19T06:00:25.941Z,196.00
2022-10-19T06:01:25.984Z,200.00
2022-10-19T06:02:25.911Z,220.00
2022-10-19T06:03:25.905Z,236.00
2022-10-19T06:04:25.908Z,248.00
2022-10-19T06:05:25.887Z,264.00
2022-10-19T06:06:25.874Z,272.00
2022-10-19T06:07:25.866Z,264.00
2022-10-19T06:08:25.859Z,276.00
2022-10-19T06:09:25.866Z,268.00
2022-10-19T06:10:25.842Z,300.00
2022-10-19T06:11:25.831Z,304.00
2022-10-19T06:12:25.835Z,324.00
2022-10-19T06:13:25.814Z,336.00
2022-10-19T06:14:25.827Z,340.00
2022-10-19T06:15:25.801Z,344.00
2022-10-19T06:16:25.790Z,336.00
2022-10-19T06:17:25.781Z,344.00
2022-10-19T06:18:25.779Z,368.00
2022-10-19T06:19:25.783Z,372.00
2022-10-19T06:20:25.755Z,360.00
2022-10-19T06:21:25.747Z,376.00
2022-10-19T06:22:25.737Z,372.00
2022-10-19T06:23:25.740Z,416.00
2022-10-19T06:24:25.722Z,400.00
2022-10-19T06:25:25.853Z,404.00
2022-10-19T06:26:25.707Z,412.00
2022-10-19T06:27:25.733Z,428.00
2022-10-19T06:28:25.689Z,440.00
2022-10-19T06:29:25.677Z,464.00
2022-10-19T06:30:25.722Z,492.00
2022-10-19T06:31:25.663Z,444.00
2022-10-19T06:32:25.646Z,488.00
2022-10-19T06:33:25.645Z,476.00
2022-10-19T06:34:25.691Z,468.00
2022-10-19T06:35:25.633Z,464.00
2022-10-19T06:36:25.618Z,536.00
2022-10-19T06:37:25.612Z,504.00
2022-10-19T06:38:25.597Z,552.00
2022-10-19T06:39:25.589Z,572.00
2022-10-19T06:40:25.635Z,544.00
2022-10-19T06:41:25.571Z,592.00
2022-10-19T06:42:25.563Z,560.00
2022-10-19T06:43:25.552Z,620.00
2022-10-19T06:44:25.554Z,656.00
2022-10-19T06:45:25.549Z,668.00
2022-10-19T06:46:25.528Z,656.00
2022-10-19T06:47:25.518Z,664.00
2022-10-19T06:48:25.511Z,656.00
2022-10-19T06:49:25.501Z,608.00
2022-10-19T06:50:25.500Z,624.00
2022-10-19T06:51:25.491Z,616.00
2022-10-19T06:52:25.477Z,616.00
2022-10-19T06:53:25.466Z,788.00
2022-10-19T06:54:25.461Z,732.00
2022-10-19T06:55:25.470Z,692.00
2022-10-19T06:56:25.447Z,644.00
2022-10-19T06:57:25.469Z,712.00
2022-10-19T06:58:25.421Z,688.00
2022-10-19T06:59:25.408Z,708.00
2022-10-19T07:00:25.478Z,740.00
2022-10-19T07:01:25.435Z,688.00
2022-10-19T07:02:25.399Z,684.00
2022-10-19T07:03:25.373Z,748.00
2022-10-19T07:04:25.366Z,832.00
2022-10-19T07:05:25.367Z,844.00
2022-10-19T07:06:25.343Z,792.00
2022-10-19T07:07:25.434Z,808.00
2022-10-19T07:08:25.330Z,840.00
2022-10-19T07:09:57.269Z,848.00
2022-10-19T07:10:25.419Z,916.00
2022-10-19T07:11:25.299Z,996.00
2022-10-19T07:12:25.291Z,1008.00
2022-10-19T07:13:25.280Z,984.00
2022-10-19T07:14:25.271Z,1088.00
2022-10-19T07:15:25.279Z,1044.00
2022-10-19T07:16:25.254Z,944.00
2022-10-19T07:17:25.251Z,988.00
2022-10-19T07:18:25.241Z,1092.00
2022-10-19T07:19:25.229Z,968.00
2022-10-19T07:20:25.237Z,980.00
2022-10-19T07:21:25.210Z,1312.00
2022-10-19T07:22:28.101Z,1704.00
2022-10-19T07:23:26.193Z,1152.00
2022-10-19T07:24:25.195Z,1020.00
2022-10-19T07:25:25.186Z,1168.00
2022-10-19T07:26:25.166Z,1248.00
2022-10-19T07:27:25.161Z,1372.00
2022-10-19T07:28:25.154Z,1372.00
2022-10-19T07:29:25.140Z,1348.00
2022-10-19T07:30:25.170Z,1276.00
2022-10-19T07:31:25.129Z,1128.00
2022-10-19T07:32:25.114Z,1192.00
2022-10-19T07:33:25.102Z,1092.00
2022-10-19T07:34:28.224Z,1152.00
2022-10-19T07:35:25.141Z,1248.00
2022-10-19T07:36:25.083Z,1096.00
2022-10-19T07:37:25.070Z,1060.00
2022-10-19T07:38:25.061Z,1080.00
2022-10-19T07:39:25.053Z,1060.00
2022-10-19T07:40:25.071Z,1116.00
2022-10-19T07:41:25.038Z,1076.00
2022-10-19T07:42:25.027Z,1016.00
2022-10-19T07:43:25.019Z,1020.00
2022-10-19T07:44:25.014Z,952.00
2022-10-19T07:45:25.013Z,916.00
2022-10-19T07:46:24.991Z,952.00
2022-10-19T07:47:24.997Z,972.00
2022-10-19T07:48:24.975Z,1012.00
2022-10-19T07:49:24.959Z,980.00
2022-10-19T07:50:24.966Z,896.00
2022-10-19T07:51:24.998Z,976.00
2022-10-19T07:52:24.934Z,1436.00
2022-10-19T07:53:24.925Z,1340.00
2022-10-19T07:54:24.915Z,1268.00
2022-10-19T07:55:24.917Z,1232.00
2022-10-19T07:56:24.897Z,1092.00
2022-10-19T07:57:24.882Z,1260.00
2022-10-19T07:58:24.871Z,1456.00
2022-10-19T07:59:24.874Z,1396.00
2022-10-19T08:00:25.015Z,1460.00
2022-10-19T08:01:24.850Z,1412.00
2022-10-19T08:02:30.849Z,1516.00
2022-10-19T08:05:26.856Z,1952.00
2022-10-19T08:06:24.803Z,1964.00
2022-10-19T08:07:24.798Z,1908.00
2022-10-19T08:08:24.806Z,2120.00
2022-10-19T08:09:53.902Z,2120.00
2022-10-19T08:10:26.785Z,2352.00
2022-10-19T08:11:24.760Z,2664.00
2022-10-19T08:12:24.751Z,2852.00
2022-10-19T08:13:24.743Z,3752.00
2022-10-19T08:14:24.734Z,5356.00
2022-10-19T08:15:24.740Z,6372.00
2022-10-19T08:16:24.722Z,6832.00
2022-10-19T08:17:24.712Z,7356.00
2022-10-19T08:18:24.742Z,7876.00
2022-10-19T08:19:24.693Z,7652.00
2022-10-19T08:20:24.692Z,5724.00
2022-10-19T08:21:24.685Z,5472.00
2022-10-19T08:22:24.671Z,5456.00
2022-10-19T08:23:24.659Z,5452.00
2022-10-19T08:24:24.648Z,4200.00
2022-10-19T08:25:24.652Z,2780.00
2022-10-19T08:26:24.626Z,3268.00
2022-10-19T08:27:24.657Z,2848.00
2022-10-19T08:28:24.612Z,3624.00
2022-10-19T08:29:26.599Z,4476.00
2022-10-19T08:30:24.690Z,3984.00
2022-10-19T08:31:24.584Z,4388.00
2022-10-19T08:32:24.580Z,4616.00
2022-10-19T08:33:24.569Z,5412.00
2022-10-19T08:34:24.559Z,5420.00
2022-10-19T08:35:24.579Z,3916.00
2022-10-19T08:36:24.538Z,3192.00
2022-10-19T08:37:39.936Z,6704.00
2022-10-19T08:38:26.532Z,6192.00
2022-10-19T08:39:24.512Z,5968.00
2022-10-19T08:40:24.514Z,6044.00
2022-10-19T08:41:24.498Z,6572.00
2022-10-19T08:42:24.486Z,7156.00
2022-10-19T08:43:24.480Z,6764.00
2022-10-19T08:44:24.465Z,6504.00
2022-10-19T08:45:24.471Z,5860.00
2022-10-19T08:46:24.448Z,4344.00
2022-10-19T08:47:24.469Z,3760.00
2022-10-19T08:48:24.428Z,3548.00
2022-10-19T08:49:24.423Z,3528.00
2022-10-19T08:50:24.427Z,3508.00
2022-10-19T08:51:24.401Z,3260.00
2022-10-19T08:52:24.399Z,2968.00
2022-10-19T08:53:24.395Z,3096.00
2022-10-19T08:54:24.380Z,3368.00
2022-10-19T08:55:24.380Z,3604.00
2022-10-19T08:56:45.724Z,3908.00
2022-10-19T08:57:26.353Z,4616.00
2022-10-19T08:58:24.343Z,4980.00
2022-10-19T08:59:24.347Z,5256.00
2022-10-19T09:00:24.427Z,5816.00
2022-10-19T09:01:24.319Z,8852.00
2022-10-19T09:02:24.309Z,11204.00
2022-10-19T09:03:31.930Z,11548.00
2022-10-19T09:04:26.284Z,9796.00
2022-10-19T09:05:24.284Z,6300.00
2022-10-19T09:06:24.283Z,5828.00
2022-10-19T09:07:24.259Z,6412.00
2022-10-19T09:08:24.333Z,7556.00
2022-10-19T09:09:24.236Z,7628.00
2022-10-19T09:10:24.250Z,7420.00
2022-10-19T09:11:24.222Z,7484.00
2022-10-19T09:12:24.213Z,7380.00
2022-10-19T09:13:26.683Z,7272.00
2022-10-19T09:14:24.204Z,6676.00
2022-10-19T09:15:24.193Z,6156.00
2022-10-19T09:16:24.178Z,7940.00
2022-10-19T09:17:24.165Z,6272.00
2022-10-19T09:18:24.180Z,5948.00
2022-10-19T09:19:24.145Z,6808.00
2022-10-19T09:20:24.154Z,5588.00
2022-10-19T09:21:30.997Z,9492.00
2022-10-19T09:22:26.108Z,5396.00
2022-10-19T09:23:25.110Z,5124.00
2022-10-19T09:24:24.097Z,7188.00
2022-10-19T09:25:24.096Z,10060.00
2022-10-19T09:26:24.077Z,7076.00
2022-10-19T09:27:24.083Z,7332.00
2022-10-19T09:28:27.347Z,5792.00
2022-10-19T09:29:25.048Z,7212.00
2022-10-19T09:30:24.057Z,7652.00
2022-10-19T09:31:24.029Z,20192.00
2022-10-19T09:32:24.019Z,16960.00
2022-10-19T09:33:24.010Z,8472.00
2022-10-19T09:34:24.022Z,7508.00
2022-10-19T09:35:24.002Z,10012.00
2022-10-19T09:36:39.266Z,19712.00
2022-10-19T09:37:26.912Z,17056.00
2022-10-19T09:38:24.959Z,10924.00
2022-10-19T09:39:27.025Z,7188.00
2022-10-19T09:40:24.947Z,5944.00
2022-10-19T09:41:23.934Z,6860.00
2022-10-19T09:42:23.919Z,5448.00
2022-10-19T09:43:23.912Z,5580.00
2022-10-19T09:44:23.904Z,5772.00
2022-10-19T09:45:23.902Z,7844.00
2022-10-19T09:46:23.885Z,6884.00
2022-10-19T09:47:23.874Z,5600.00
2022-10-19T09:48:23.869Z,5952.00
2022-10-19T09:49:23.850Z,7364.00
2022-10-19T09:50:23.854Z,33696.00
2022-10-19T09:51:23.833Z,11332.00
2022-10-19T09:52:23.843Z,25600.00
2022-10-19T09:53:23.816Z,54688.00
2022-10-19T09:54:23.815Z,24864.00
2022-10-19T09:55:23.804Z,91904.00
2022-10-19T09:56:23.784Z,87296.00
2022-10-19T09:57:23.771Z,71104.00
2022-10-19T09:58:23.757Z,5136.00
2022-10-19T09:59:23.753Z,6240.00
2022-10-19T10:00:23.764Z,5884.00
2022-10-19T10:01:23.829Z,6628.00
2022-10-19T10:02:23.723Z,4300.00
2022-10-19T10:03:23.711Z,4000.00
2022-10-19T10:04:23.700Z,4292.00
2022-10-19T10:05:23.712Z,6080.00
2022-10-19T10:06:23.691Z,7216.00
2022-10-19T10:07:23.669Z,4816.00
2022-10-19T10:08:23.709Z,6568.00
2022-10-19T10:09:23.647Z,5264.00
2022-10-19T10:10:28.105Z,5064.00
2022-10-19T10:11:25.645Z,5036.00
2022-10-19T10:12:23.621Z,5192.00
2022-10-19T10:13:23.606Z,5692.00
2022-10-19T10:14:23.600Z,6120.00
2022-10-19T10:15:23.603Z,6464.00
2022-10-19T10:16:23.583Z,6648.00
2022-10-19T10:17:23.568Z,6596.00
2022-10-19T10:18:23.556Z,6756.00
2022-10-19T10:19:27.178Z,6920.00
2022-10-19T10:20:24.548Z,7364.00
2022-10-19T10:21:25.710Z,7596.00
2022-10-19T10:22:24.523Z,6844.00
2022-10-19T10:23:23.507Z,6624.00
2022-10-19T10:24:23.507Z,6700.00
2022-10-19T10:25:23.518Z,6848.00
2022-10-19T10:26:23.522Z,7008.00
2022-10-19T10:27:23.471Z,5956.00
2022-10-19T10:28:23.456Z,5888.00
2022-10-19T10:29:23.442Z,5676.00
2022-10-19T10:30:23.459Z,5404.00
2022-10-19T10:31:23.432Z,5692.00
2022-10-19T10:32:23.419Z,5588.00
2022-10-19T10:33:45.459Z,5600.00
2022-10-19T10:34:37.657Z,5588.00
2022-10-19T10:35:25.410Z,5616.00
2022-10-19T10:36:23.382Z,5576.00
2022-10-19T10:37:23.370Z,5156.00
2022-10-19T10:38:23.358Z,4420.00
2022-10-19T10:39:23.349Z,4316.00
2022-10-19T10:40:23.813Z,4164.00
2022-10-19T10:41:24.326Z,4000.00
2022-10-19T10:42:23.321Z,4084.00
2022-10-19T10:43:23.314Z,3656.00
2022-10-19T10:44:23.305Z,3168.00
2022-10-19T10:45:23.302Z,3036.00
2022-10-19T10:46:23.287Z,2940.00
2022-10-19T10:47:23.277Z,3020.00
2022-10-19T10:48:23.263Z,3180.00
2022-10-19T10:49:23.256Z,3008.00
2022-10-19T10:50:23.248Z,2784.00
2022-10-19T10:51:23.246Z,2928.00
2022-10-19T10:52:23.221Z,3256.00
2022-10-19T10:53:23.212Z,3580.00
2022-10-19T10:54:23.204Z,3968.00
2022-10-19T10:55:23.208Z,4000.00
2022-10-19T10:56:23.186Z,3764.00
2022-10-19T10:58:26.782Z,4748.00
2022-10-19T10:59:24.156Z,3480.00
2022-10-19T11:00:23.141Z,3172.00
2022-10-19T11:01:23.178Z,3192.00
2022-10-19T11:02:23.175Z,3312.00
2022-10-19T11:03:23.114Z,3308.00
2022-10-19T11:04:23.100Z,3324.00
2022-10-19T11:05:23.091Z,3332.00
2022-10-19T11:07:23.072Z,3632.00
2022-10-19T11:08:23.170Z,3768.00
2022-10-19T11:09:23.051Z,3756.00
2022-10-19T11:10:23.038Z,3492.00
2022-10-19T11:11:23.035Z,3364.00
2022-10-19T11:12:23.020Z,3220.00
2022-10-19T11:13:23.006Z,3356.00
2022-10-19T11:14:22.995Z,3068.00
2022-10-19T11:15:23.039Z,3272.00
2022-10-19T11:16:22.996Z,3192.00
2022-10-19T11:17:22.974Z,3044.00
2022-10-19T11:18:22.966Z,3520.00
2022-10-19T11:19:22.951Z,3204.00
2022-10-19T11:20:22.943Z,3080.00
2022-10-19T11:21:22.943Z,3528.00
2022-10-19T11:22:25.014Z,4056.00
2022-10-19T11:23:22.909Z,4216.00
2022-10-19T11:24:22.959Z,4480.00
2022-10-19T11:25:22.901Z,4736.00
2022-10-19T11:26:22.883Z,5308.00
2022-10-19T11:27:22.872Z,5064.00
2022-10-19T11:28:22.866Z,4916.00
2022-10-19T11:29:22.853Z,4560.00
2022-10-19T11:30:22.852Z,4432.00
2022-10-19T11:31:22.831Z,4236.00
2022-10-19T11:32:22.815Z,3940.00
2022-10-19T11:33:22.813Z,3640.00
2022-10-19T11:34:25.194Z,3700.00
2022-10-19T11:35:22.802Z,3728.00
2022-10-19T11:36:22.783Z,3536.00
2022-10-19T11:37:22.774Z,3580.00
2022-10-19T11:38:27.438Z,3520.00
2022-10-19T11:39:24.760Z,3788.00
2022-10-19T11:40:22.757Z,3680.00
2022-10-19T11:41:22.735Z,3604.00
2022-10-19T11:42:22.722Z,3364.00
2022-10-19T11:43:24.917Z,3476.00
2022-10-19T11:44:22.701Z,3728.00
2022-10-19T11:45:22.704Z,3664.00
2022-10-19T11:46:22.684Z,3960.00
2022-10-19T11:47:22.672Z,3852.00
2022-10-19T11:48:22.660Z,3724.00
2022-10-19T11:49:22.644Z,3824.00
2022-10-19T11:50:25.088Z,3932.00
2022-10-19T11:51:22.630Z,3808.00
2022-10-19T11:52:22.622Z,3692.00
2022-10-19T11:53:22.614Z,4264.00
2022-10-19T11:54:22.601Z,4720.00
2022-10-19T11:55:22.588Z,4828.00
2022-10-19T11:56:25.201Z,4796.00
2022-10-19T11:57:23.572Z,4608.00
2022-10-19T11:58:22.565Z,4356.00
2022-10-19T11:59:22.589Z,4244.00
2022-10-19T12:00:39.534Z,4076.00
2022-10-19T12:01:24.532Z,3816.00
2022-10-19T12:02:22.665Z,3896.00
2022-10-19T12:03:22.509Z,3852.00
2022-10-19T12:04:22.512Z,3832.00
2022-10-19T12:05:22.509Z,3812.00
2022-10-19T12:06:22.479Z,3536.00
2022-10-19T12:07:22.469Z,3432.00
2022-10-19T12:08:22.475Z,3324.00
2022-10-19T12:09:22.462Z,3188.00
2022-10-19T12:10:22.459Z,3104.00
2022-10-19T12:11:22.433Z,2960.00
2022-10-19T12:12:22.418Z,2868.00
2022-10-19T12:13:22.402Z,2816.00
2022-10-19T12:14:23.398Z,2748.00
2022-10-19T12:15:22.395Z,2708.00
2022-10-19T12:16:22.377Z,2752.00
2022-10-19T12:17:22.368Z,2772.00
2022-10-19T12:18:22.362Z,2696.00
2022-10-19T12:19:22.362Z,2748.00
2022-10-19T12:20:23.358Z,2860.00
2022-10-19T12:21:22.325Z,2904.00
2022-10-19T12:22:22.318Z,2664.00
2022-10-19T12:23:22.305Z,2580.00
2022-10-19T12:24:22.297Z,2676.00
2022-10-19T12:25:22.358Z,2668.00
2022-10-19T12:26:22.276Z,2540.00
2022-10-19T12:27:22.265Z,2540.00
2022-10-19T12:28:22.260Z,2640.00
2022-10-19T12:29:22.243Z,2960.00
2022-10-19T12:30:22.242Z,2996.00
2022-10-19T12:31:22.229Z,2828.00
2022-10-19T12:32:22.214Z,2728.00
2022-10-19T12:33:22.213Z,2672.00
2022-10-19T12:34:22.192Z,2704.00
2022-10-19T12:35:22.197Z,2820.00
2022-10-19T12:36:22.169Z,2792.00
2022-10-19T12:37:22.157Z,2820.00
2022-10-19T12:38:22.148Z,2716.00
2022-10-19T12:39:22.137Z,2588.00
2022-10-19T12:40:22.134Z,2528.00
2022-10-19T12:41:22.115Z,2420.00
2022-10-19T12:42:22.110Z,2352.00
2022-10-19T12:43:22.102Z,2396.00
2022-10-19T12:44:22.111Z,2388.00